Olpe, Kansas
Current Conditions -  °F | °C
As of 1:53 PM on Wednesday 28 Jan 2015 (Local Time) from KEMP Reporting Station
Clear Clear  
Wind Chill: 72°   Ceiling: Unl
Heat Index: 72°   Visibility: 10mi
Dew Point: 37°   Wind: 24mph
Humidity: 28%   Direction: 230°SW
Pressure: 29.76"   Gusts: 31mph
Location:  38.26°N, 96.17°W
Report Text: KEMP 281953Z AUTO 23021G27KT 10SM CLR 22/03 A2976 RMK AO2 PK WND 22032/1854 SLP075 T02220028
Loading
Personal Weather Stations






























Interactive Weather Map New forecast layout! Learn more

10-Day Weather Forecast

Advertisements
Track Severe Weather on mobile